Overview Statistics Trail Chart Weather Telemetry Raw packets
 

This is the latest recevied weather packets stored in our database for station/object WMKD. If no packets are shown the sender has not sent any weather packets the latest 10 day(s).

<< 7 8 9 10 11 >>
Time Temp. Humidity Pressure Rain* Wind** Luminosity Snow
1777370976 30.56° C 70% 1005 hPa - - - -
1777367379 31.67° C 66% 1006 hPa - - - -
1777363776 32.78° C 66% 1006 hPa - - - -
1777360175 32.78° C 66% 1006 hPa - - - -
1777356576 32.78° C 62% 1007 hPa - - - -
1777352981 33.89° C 56% 1008 hPa - - - -
1777349375 31.67° C 66% 1008 hPa - - - -
1777345775 30.56° C 74% 1009 hPa - - - -
1777342771 30° C 79% 1009 hPa - - - -
1777342175 28.89° C 83% 1009 hPa - - - -
1777338578 28.89° C 83% 1009 hPa - - - -
1777334975 25.56° C 94% 1008 hPa - - - -
1777331375 25.56° C 94% 1007 hPa - - - -
1777328977 25.56° C 94% 1007 hPa - - - -
1777327775 25.56° C 94% 1007 hPa - - - -
1777324174 25.56° C 94% 1007 hPa - - - -
1777320579 25.56° C 94% 1007 hPa - - - -
1777318172 25.56° C 94% 1007 hPa - - - -
1777316975 25.56° C 94% 1007 hPa - - - -
1777313375 25.56° C 94% 1008 hPa - - - -
1777309775 26.67° C 94% 1009 hPa - - - -
1777306177 26.67° C 94% 1009 hPa - - - -
1777302574 26.67° C 94% 1009 hPa - - - -
1777298974 27.78° C 88% 1009 hPa - - - -
1777295374 27.78° C 88% 1008 hPa - - - -

* Rain since midnight (hover to see other rain measurements)
** Current wind speed in m/s (hover to see current wind gust speed)